createdAt,value
2018-03-26T00:00:03.591Z,114.03
2018-03-26T00:02:55.300Z,115.80
2018-03-26T00:05:37.941Z,115.80
2018-03-26T00:08:38.496Z,103.77
2018-03-26T00:11:16.141Z,118.50
2018-03-26T00:14:06.127Z,112.93
2018-03-26T00:16:52.249Z,111.57
2018-03-26T00:19:41.880Z,111.83
2018-03-26T00:22:21.893Z,123.60
2018-03-26T00:27:52.902Z,114.70
2018-03-26T00:30:34.142Z,118.20
2018-03-26T00:33:33.189Z,114.43
2018-03-26T00:36:22.629Z,120.87
2018-03-26T00:42:00.310Z,111.40
2018-03-26T00:44:41.124Z,112.90
2018-03-26T00:47:21.662Z,110.23
2018-03-26T00:50:04.653Z,111.97
2018-03-26T00:52:49.280Z,108.30
2018-03-26T00:58:27.168Z,104.20
2018-03-26T01:01:18.856Z,105.93
2018-03-26T01:04:02.485Z,102.50
2018-03-26T01:06:47.495Z,95.83
2018-03-26T01:09:45.364Z,100.80
2018-03-26T01:12:37.242Z,104.30
2018-03-26T01:21:02.356Z,99.28
2018-03-26T01:23:43.737Z,98.07
2018-03-26T01:26:30.348Z,87.73
2018-03-26T01:29:16.623Z,87.97
2018-03-26T01:32:10.570Z,96.80
2018-03-26T01:34:57.841Z,89.57
2018-03-26T01:37:39.447Z,85.10
2018-03-26T01:40:25.503Z,89.67
2018-03-26T01:43:10.501Z,93.47
2018-03-26T01:48:55.148Z,79.00
2018-03-26T01:51:36.506Z,74.03
2018-03-26T01:57:12.999Z,84.53
2018-03-26T02:00:09.522Z,81.10
2018-03-26T02:02:58.345Z,84.10
2018-03-26T02:05:50.881Z,77.40
2018-03-26T02:08:47.120Z,76.03
2018-03-26T02:11:43.756Z,73.07
2018-03-26T02:14:34.381Z,75.13
2018-03-26T02:17:21.620Z,66.07
2018-03-26T02:20:03.357Z,73.73
2018-03-26T02:22:58.979Z,73.03
2018-03-26T02:31:20.750Z,76.77
2018-03-26T02:34:01.995Z,59.77
2018-03-26T02:36:39.962Z,71.10
2018-03-26T02:39:31.041Z,75.10
2018-03-26T02:42:23.498Z,69.13
2018-03-26T02:45:06.317Z,64.93
2018-03-26T02:47:51.796Z,72.50
2018-03-26T02:50:33.599Z,71.53
2018-03-26T02:53:14.147Z,68.83
2018-03-26T02:58:50.883Z,82.55
2018-03-26T03:01:30.944Z,74.53
2018-03-26T03:04:24.848Z,67.43
2018-03-26T03:07:13.238Z,72.63
2018-03-26T03:10:11.164Z,71.43
2018-03-26T03:12:57.598Z,73.37
2018-03-26T03:15:50.643Z,73.73
2018-03-26T03:18:37.160Z,71.80
2018-03-26T03:21:24.873Z,75.07
2018-03-26T03:24:06.106Z,80.00
2018-03-26T03:27:14.357Z,104.10
2018-03-26T03:33:12.390Z,90.13
2018-03-26T03:35:51.701Z,82.87
2018-03-26T17:40:13.213Z,14.40
2018-03-26T22:30:14.873Z,14.87
2018-03-26T22:36:11.861Z,18.40
2018-03-26T22:39:06.702Z,16.00
2018-03-26T22:41:54.134Z,14.90
2018-03-26T23:43:10.834Z,35.63
2018-03-26T23:46:03.482Z,30.27
2018-03-26T23:48:53.742Z,36.83
2018-03-26T23:51:41.576Z,37.67
2018-03-26T23:54:18.118Z,47.80
2018-03-26T23:57:13.916Z,39.40
2018-03-26T23:59:57.722Z,40.83
